Nearby METAR Reports

 

KMTN - Baltimore/Martin, Maryland, USA
Distance from station: SSE 8mi, 13km
Updated: Mon, 25-Sep-2017 1:45pm EDT
Few Clouds
Few Clouds
 Wind from SSE
Wind: SSE 6 mph , 9 km/h
Temperature: 88°F , 31°C
Heat Index: 95°F , 35°C
Dew Point: 72°F , 22°C
Humidity: 59%
Barometer: 30.04 inHg , 1017.3 hPa
Clouds: Few Clouds
Visibility: 10 miles , 16 km
Cloud details: Few Clouds 20000 ft
2017/09/25 17:45 KMTN 251745Z 15005KT 10SM FEW200 31/22 A3004
KDMH - Baltimore/Dwntwn, Maryland, USA
Distance from station: SW 12mi, 19km
Updated: Mon, 25-Sep-2017 1:54pm EDT

 
Temperature: 90°F , 32°C
Heat Index: 93°F , 34°C
Dew Point: 66°F , 19°C
Humidity: 46%
Barometer: 30.02 inHg , 1016.6 hPa
2017/09/25 17:54 KDMH 251754Z AUTO 32/19 A3002 RMK AO1 SLP165 T03170194 10322 20244 58014
 
KBWI - Balto/Wash Intl, Maryland, USA
Distance from station: SSW 20mi, 33km
Updated: Mon, 25-Sep-2017 1:54pm EDT
Partly cloudy
Partly cloudy
 Wind from ENE
Wind: ENE 8 mph , 13 km/h
Temperature: 88°F , 31°C
Heat Index: 90°F , 32°C
Dew Point: 64°F , 18°C
Humidity: 46%
Barometer: 30.02 inHg , 1016.6 hPa
Clouds: Partly cloudy
Visibility: 10 miles , 16 km
Cloud details: Few Clouds 6000 ft
Partly cloudy 25000 ft
2017/09/25 17:54 KBWI 251754Z 07007KT 10SM FEW060 SCT250 31/18 A3002 RMK AO2 SLP165 T03110183 10317 20206 58013
KDMW - Carroll Cnty, Maryland, USA
Distance from station: WNW 30mi, 48km
Updated: Mon, 25-Sep-2017 2:25pm EDT
Clear
Clear
 Wind from E
Wind: E 5 mph , 7 km/h
Temperature: 90°F , 32°C
Heat Index: 92°F , 33°C
Dew Point: 64°F , 18°C
Humidity: 43%
Barometer: 30.04 inHg , 1017.3 hPa
Clouds: Clear
2017/09/25 18:25 KDMW 251825Z AUTO 10004KT CLR 32/18 A3004 RMK AO2 PWINO
 
KNAK - Annapolis/Naval, Maryland, USA
Distance from station: S 30mi, 48km
Updated: Mon, 25-Sep-2017 1:54pm EDT
Clear
Clear
 Wind from ENE
Wind: ENE 6 mph , 9 km/h
Temperature: 86°F , 30°C
Heat Index: 91°F , 33°C
Dew Point: 70°F , 21°C
Humidity: 59%
Barometer: 30.02 inHg , 1016.6 hPa
Clouds: Clear
Visibility: 10 miles , 16 km
2017/09/25 17:54 KNAK 251754Z AUTO 07005KT 10SM CLR 30/21 A3002 RMK AO2 SLP167 T03000206 10300 20239 58013
KW29 - Stevensville, Maryland, USA
Distance from station: SSE 31mi, 50km
Updated: Mon, 25-Sep-2017 2:20pm EDT
Clear
Clear
 Wind from NNW
Wind: NNW 8 mph , 13 km/h
Temperature: 82°F , 28°C
Heat Index: 85°F , 29°C
Dew Point: 68°F , 20°C
Humidity: 62%
Barometer: 30.01 inHg , 1016.3 hPa
Clouds: Clear
Visibility: 10 miles , 16 km
2017/09/25 18:20 KW29 251820Z AUTO 33007KT 10SM CLR 28/20 A3001 RMK AO2
 
KCGS - College Park, Maryland, USA
Distance from station: SW 38mi, 61km
Updated: Mon, 25-Sep-2017 2:25pm EDT
Clear
Clear
 Wind from ENE
Wind: ENE 3 mph , 6 km/h
Temperature: 88°F , 31°C
Heat Index: 91°F , 33°C
Dew Point: 66°F , 19°C
Humidity: 49%
Barometer: 30.01 inHg , 1016.3 hPa
Clouds: Clear
Visibility: 10 miles , 16 km
2017/09/25 18:25 KCGS 251825Z AUTO 06003KT 10SM CLR 31/19 A3001 RMK AO1 T03090192
KGAI - Gaithersburg, Maryland, USA
Distance from station: WSW 40mi, 65km
Updated: Mon, 25-Sep-2017 1:56pm EDT
Clear
Clear
 Wind from varies
Wind: varies 5 mph , 7 km/h
Temperature: 88°F , 31°C
Heat Index: 93°F , 34°C
Dew Point: 70°F , 21°C
Humidity: 55%
Barometer: 30.05 inHg , 1017.6 hPa
Clouds: Clear
2017/09/25 17:56 KGAI 251756Z AUTO VRB04KT CLR 31/21 A3005 RMK AO2 SLP196 T03110206 10311 20189 58014 $
 
KTHV - York, Pennsylvania, USA
Distance from station: NNW 40mi, 65km
Updated: Mon, 25-Sep-2017 1:53pm EDT
Clear
Clear
 Wind from calm
Wind: Calm
Temperature: 88°F , 31°C
Heat Index: 91°F , 33°C
Dew Point: 66°F , 19°C
Humidity: 49%
Barometer: 30.04 inHg , 1017.3 hPa
Clouds: Clear
Visibility: 10 miles , 16 km
2017/09/25 17:53 KTHV 251753Z AUTO 00000KT 10SM CLR 31/19 A3004 RMK AO2 SLP171 T03060189 10311 20178 58013
KFDK - Frederick, Maryland, USA
Distance from station: W 47mi, 75km
Updated: Mon, 25-Sep-2017 1:47pm EDT
Clear
Clear
 Wind from calm
Wind: Calm
Temperature: 90°F , 32°C
Heat Index: 93°F , 34°C
Dew Point: 66°F , 19°C
Humidity: 46%
Barometer: 30.06 inHg , 1017.9 hPa
Clouds: Clear
Visibility: 10 miles , 16 km
2017/09/25 17:47 KFDK 251747Z 00000KT 10SM SKC 32/19 A3006
 
KESN - Easton/Newnam, Maryland, USA
Distance from station: SSE 48mi, 78km
Updated: Mon, 25-Sep-2017 1:55pm EDT
Clear
Clear
 Wind from ENE
Wind: ENE 8 mph , 13 km/h, Gust: 16 mph , 26 km/h
Temperature: 90°F , 32°C
Heat Index: 93°F , 34°C
Dew Point: 66°F , 19°C
Humidity: 46%
Barometer: 30.05 inHg , 1017.6 hPa
Clouds: Clear
Visibility: 10 miles , 16 km
2017/09/25 17:55 KESN 251755Z 06007G14KT 10SM SKC 32/19 A3005
KDCA - Washington/Natl, Washington D.c., USA
Distance from station: SW 49mi, 79km
Updated: Mon, 25-Sep-2017 1:52pm EDT
Mostly cloudy
Mostly cloudy
 Wind from NNE
Wind: NNE 6 mph , 9 km/h
Temperature: 90°F , 32°C
Heat Index: 93°F , 34°C
Dew Point: 66°F , 19°C
Humidity: 46%
Barometer: 30.02 inHg , 1016.6 hPa
Clouds: Mostly cloudy
Visibility: 10 miles , 16 km
Cloud details: Few Clouds 4500 ft
Mostly cloudy 25000 ft
2017/09/25 17:52 KDCA 251752Z 02005KT 10SM FEW045 BKN250 32/19 A3002 RMK AO2 SLP164 T03220194 10322 20228 58016 $
 
KLNS - Lancaster, Pennsylvania, USA
Distance from station: N 49mi, 79km
Updated: Mon, 25-Sep-2017 1:53pm EDT
Clear
Clear
 Wind from varies
Wind: varies 3 mph , 6 km/h
Temperature: 90°F , 32°C
Heat Index: 96°F , 36°C
Dew Point: 70°F , 21°C
Humidity: 52%
Barometer: 30.04 inHg , 1017.3 hPa
Clouds: Clear
Visibility: 9 miles , 14 km
2017/09/25 17:53 KLNS 251753Z VRB03KT 9SM CLR 32/21 A3004 RMK AO2 SLP168 T03170206 10317 20194 58013
KILG - Wilmington, Delaware, USA
Distance from station: ENE 50mi, 81km
Updated: Mon, 25-Sep-2017 1:51pm EDT
Clear
Clear
 Wind from varies
Wind: varies 6 mph , 9 km/h
Temperature: 90°F , 32°C
Heat Index: 93°F , 34°C
Dew Point: 66°F , 19°C
Humidity: 46%
Barometer: 30.03 inHg , 1016.9 hPa
Clouds: Clear
Visibility: 10 miles , 16 km
2017/09/25 17:51 KILG 251751Z VRB05KT 10SM CLR 32/19 A3003 RMK AO2 SLP167 T03170194 10322 20211 58014